sensor_id;sensor_type;location;lat;lon;timestamp;temperature;humidity
2465;DHT22;1244;54.326;10.074;2023-05-16T00:01:38;9.90;99.90
2465;DHT22;1244;54.326;10.074;2023-05-16T00:04:03;9.90;99.90
2465;DHT22;1244;54.326;10.074;2023-05-16T00:06:30;9.70;99.90
2465;DHT22;1244;54.326;10.074;2023-05-16T00:08:56;9.80;99.90
2465;DHT22;1244;54.326;10.074;2023-05-16T00:11:21;9.70;99.90
2465;DHT22;1244;54.326;10.074;2023-05-16T00:13:47;9.80;99.90
2465;DHT22;1244;54.326;10.074;2023-05-16T00:16:13;10.00;99.90
2465;DHT22;1244;54.326;10.074;2023-05-16T00:18:39;9.90;99.90
2465;DHT22;1244;54.326;10.074;2023-05-16T00:21:05;9.90;99.90
2465;DHT22;1244;54.326;10.074;2023-05-16T00:23:31;9.90;99.90
2465;DHT22;1244;54.326;10.074;2023-05-16T00:25:57;9.90;99.90
2465;DHT22;1244;54.326;10.074;2023-05-16T00:28:22;9.90;99.90
2465;DHT22;1244;54.326;10.074;2023-05-16T00:30:48;10.00;99.90
2465;DHT22;1244;54.326;10.074;2023-05-16T00:33:13;10.00;99.90
2465;DHT22;1244;54.326;10.074;2023-05-16T00:35:39;10.10;99.90
2465;DHT22;1244;54.326;10.074;2023-05-16T00:38:05;10.20;99.90
2465;DHT22;1244;54.326;10.074;2023-05-16T00:40:31;10.20;99.90
2465;DHT22;1244;54.326;10.074;2023-05-16T00:42:57;10.10;99.90
2465;DHT22;1244;54.326;10.074;2023-05-16T00:45:22;10.20;99.90
2465;DHT22;1244;54.326;10.074;2023-05-16T00:47:48;10.20;99.90
2465;DHT22;1244;54.326;10.074;2023-05-16T00:50:15;10.30;99.90
2465;DHT22;1244;54.326;10.074;2023-05-16T00:52:41;10.40;99.90
2465;DHT22;1244;54.326;10.074;2023-05-16T00:55:07;10.40;99.90
2465;DHT22;1244;54.326;10.074;2023-05-16T00:57:36;10.50;99.90
2465;DHT22;1244;54.326;10.074;2023-05-16T01:00:01;10.60;99.90
2465;DHT22;1244;54.326;10.074;2023-05-16T01:02:27;10.40;99.90
2465;DHT22;1244;54.326;10.074;2023-05-16T01:04:54;10.30;99.90
2465;DHT22;1244;54.326;10.074;2023-05-16T01:07:21;10.30;99.90
2465;DHT22;1244;54.326;10.074;2023-05-16T01:09:46;10.40;99.90
2465;DHT22;1244;54.326;10.074;2023-05-16T01:12:26;10.50;99.90
2465;DHT22;1244;54.326;10.074;2023-05-16T01:15:15;10.30;99.90
2465;DHT22;1244;54.326;10.074;2023-05-16T01:17:56;10.30;99.90
2465;DHT22;1244;54.326;10.074;2023-05-16T01:28:35;10.30;99.90
2465;DHT22;1244;54.326;10.074;2023-05-16T01:31:01;10.50;99.90
2465;DHT22;1244;54.326;10.074;2023-05-16T01:33:27;10.40;99.90
2465;DHT22;1244;54.326;10.074;2023-05-16T01:41:45;10.60;99.90
2465;DHT22;1244;54.326;10.074;2023-05-16T01:44:18;10.70;99.90
2465;DHT22;1244;54.326;10.074;2023-05-16T01:46:46;10.60;99.90
2465;DHT22;1244;54.326;10.074;2023-05-16T01:49:20;10.70;99.90
2465;DHT22;1244;54.326;10.074;2023-05-16T01:51:58;10.70;99.90
2465;DHT22;1244;54.326;10.074;2023-05-16T01:54:29;10.70;99.90
2465;DHT22;1244;54.326;10.074;2023-05-16T01:56:56;10.80;99.90
2465;DHT22;1244;54.326;10.074;2023-05-16T01:59:23;10.80;99.90
2465;DHT22;1244;54.326;10.074;2023-05-16T02:01:52;10.80;99.90
2465;DHT22;1244;54.326;10.074;2023-05-16T02:04:18;10.70;99.90
2465;DHT22;1244;54.326;10.074;2023-05-16T02:06:43;10.70;99.90
2465;DHT22;1244;54.326;10.074;2023-05-16T02:09:09;10.60;99.90
2465;DHT22;1244;54.326;10.074;2023-05-16T02:11:35;10.70;99.90
2465;DHT22;1244;54.326;10.074;2023-05-16T02:14:00;10.70;99.90
2465;DHT22;1244;54.326;10.074;2023-05-16T02:16:26;10.60;99.90
2465;DHT22;1244;54.326;10.074;2023-05-16T02:18:51;10.70;99.90
2465;DHT22;1244;54.326;10.074;2023-05-16T02:21:17;10.70;99.90
2465;DHT22;1244;54.326;10.074;2023-05-16T02:23:42;10.70;99.90
2465;DHT22;1244;54.326;10.074;2023-05-16T02:26:08;10.50;99.90
2465;DHT22;1244;54.326;10.074;2023-05-16T02:28:34;10.60;99.90
2465;DHT22;1244;54.326;10.074;2023-05-16T02:31:00;10.50;99.90
2465;DHT22;1244;54.326;10.074;2023-05-16T02:33:26;10.60;99.90
2465;DHT22;1244;54.326;10.074;2023-05-16T02:35:52;10.50;99.90
2465;DHT22;1244;54.326;10.074;2023-05-16T02:38:18;10.50;99.90
2465;DHT22;1244;54.326;10.074;2023-05-16T02:40:46;10.60;99.90
2465;DHT22;1244;54.326;10.074;2023-05-16T02:43:11;10.50;99.90
2465;DHT22;1244;54.326;10.074;2023-05-16T02:45:37;10.40;99.90
2465;DHT22;1244;54.326;10.074;2023-05-16T02:48:03;10.50;99.90
2465;DHT22;1244;54.326;10.074;2023-05-16T02:50:28;10.50;99.90
2465;DHT22;1244;54.326;10.074;2023-05-16T02:52:54;10.50;99.90
2465;DHT22;1244;54.326;10.074;2023-05-16T02:55:20;10.60;99.90
2465;DHT22;1244;54.326;10.074;2023-05-16T02:57:45;10.50;99.90
2465;DHT22;1244;54.326;10.074;2023-05-16T03:00:11;10.50;99.90
2465;DHT22;1244;54.326;10.074;2023-05-16T03:02:37;10.50;99.90
2465;DHT22;1244;54.326;10.074;2023-05-16T03:05:03;10.50;99.90
2465;DHT22;1244;54.326;10.074;2023-05-16T03:07:29;10.40;99.90
2465;DHT22;1244;54.326;10.074;2023-05-16T03:09:54;10.50;99.90
2465;DHT22;1244;54.326;10.074;2023-05-16T03:12:20;10.50;99.90
2465;DHT22;1244;54.326;10.074;2023-05-16T03:14:46;10.40;99.90
2465;DHT22;1244;54.326;10.074;2023-05-16T03:17:11;10.40;99.90
2465;DHT22;1244;54.326;10.074;2023-05-16T03:19:37;10.40;99.90
2465;DHT22;1244;54.326;10.074;2023-05-16T03:22:02;10.40;99.90
2465;DHT22;1244;54.326;10.074;2023-05-16T03:24:28;10.50;99.90
2465;DHT22;1244;54.326;10.074;2023-05-16T03:26:54;10.30;99.90
2465;DHT22;1244;54.326;10.074;2023-05-16T03:29:19;10.40;99.90
2465;DHT22;1244;54.326;10.074;2023-05-16T03:31:45;10.40;99.90
2465;DHT22;1244;54.326;10.074;2023-05-16T03:34:10;10.40;99.90
2465;DHT22;1244;54.326;10.074;2023-05-16T03:36:38;10.30;99.90
2465;DHT22;1244;54.326;10.074;2023-05-16T03:39:04;10.30;99.90
2465;DHT22;1244;54.326;10.074;2023-05-16T03:41:29;10.30;99.90
2465;DHT22;1244;54.326;10.074;2023-05-16T03:43:55;10.30;99.90
2465;DHT22;1244;54.326;10.074;2023-05-16T03:46:20;10.30;99.90
2465;DHT22;1244;54.326;10.074;2023-05-16T03:48:46;10.30;99.90
2465;DHT22;1244;54.326;10.074;2023-05-16T03:51:11;10.20;99.90
2465;DHT22;1244;54.326;10.074;2023-05-16T03:53:37;10.20;99.90
2465;DHT22;1244;54.326;10.074;2023-05-16T03:56:03;10.30;99.90
2465;DHT22;1244;54.326;10.074;2023-05-16T03:58:28;10.30;99.90
2465;DHT22;1244;54.326;10.074;2023-05-16T04:00:54;10.30;99.90
2465;DHT22;1244;54.326;10.074;2023-05-16T04:03:19;10.20;99.90
2465;DHT22;1244;54.326;10.074;2023-05-16T04:05:52;10.20;99.90
2465;DHT22;1244;54.326;10.074;2023-05-16T04:08:18;10.30;99.90
2465;DHT22;1244;54.326;10.074;2023-05-16T04:10:43;10.30;99.90
2465;DHT22;1244;54.326;10.074;2023-05-16T04:13:09;10.30;99.90
2465;DHT22;1244;54.326;10.074;2023-05-16T04:15:34;10.20;99.90
2465;DHT22;1244;54.326;10.074;2023-05-16T04:18:00;10.30;99.90
2465;DHT22;1244;54.326;10.074;2023-05-16T04:20:25;10.30;99.90
2465;DHT22;1244;54.326;10.074;2023-05-16T04:22:51;10.20;99.90
2465;DHT22;1244;54.326;10.074;2023-05-16T04:25:16;10.10;99.90
2465;DHT22;1244;54.326;10.074;2023-05-16T04:27:42;10.20;99.90
2465;DHT22;1244;54.326;10.074;2023-05-16T04:30:08;10.10;99.90
2465;DHT22;1244;54.326;10.074;2023-05-16T04:32:35;10.00;99.90
2465;DHT22;1244;54.326;10.074;2023-05-16T04:35:01;10.00;99.90
2465;DHT22;1244;54.326;10.074;2023-05-16T04:37:27;10.00;99.90
2465;DHT22;1244;54.326;10.074;2023-05-16T04:39:53;9.90;99.90
2465;DHT22;1244;54.326;10.074;2023-05-16T04:42:21;10.00;99.90
2465;DHT22;1244;54.326;10.074;2023-05-16T04:44:46;10.00;99.90
2465;DHT22;1244;54.326;10.074;2023-05-16T04:47:13;9.90;99.90
2465;DHT22;1244;54.326;10.074;2023-05-16T04:49:38;10.00;99.90
2465;DHT22;1244;54.326;10.074;2023-05-16T04:52:05;10.00;99.90
2465;DHT22;1244;54.326;10.074;2023-05-16T04:54:32;9.80;99.90
2465;DHT22;1244;54.326;10.074;2023-05-16T04:56:58;9.70;99.90
2465;DHT22;1244;54.326;10.074;2023-05-16T04:59:24;9.80;99.90
2465;DHT22;1244;54.326;10.074;2023-05-16T05:01:49;9.80;99.90
2465;DHT22;1244;54.326;10.074;2023-05-16T05:04:15;9.70;99.90
2465;DHT22;1244;54.326;10.074;2023-05-16T05:06:42;9.70;99.90
2465;DHT22;1244;54.326;10.074;2023-05-16T05:09:08;9.80;99.90
2465;DHT22;1244;54.326;10.074;2023-05-16T05:11:34;9.80;99.90
2465;DHT22;1244;54.326;10.074;2023-05-16T05:14:00;9.70;99.90
2465;DHT22;1244;54.326;10.074;2023-05-16T05:16:25;9.80;99.90
2465;DHT22;1244;54.326;10.074;2023-05-16T05:18:51;9.90;99.90
2465;DHT22;1244;54.326;10.074;2023-05-16T05:21:17;9.80;99.90
2465;DHT22;1244;54.326;10.074;2023-05-16T05:23:44;9.90;99.90
2465;DHT22;1244;54.326;10.074;2023-05-16T05:26:10;9.80;99.90
2465;DHT22;1244;54.326;10.074;2023-05-16T05:28:36;10.00;99.90
2465;DHT22;1244;54.326;10.074;2023-05-16T05:31:03;10.10;99.90
2465;DHT22;1244;54.326;10.074;2023-05-16T05:33:29;10.00;99.90
2465;DHT22;1244;54.326;10.074;2023-05-16T05:35:55;10.20;99.90
2465;DHT22;1244;54.326;10.074;2023-05-16T05:38:21;10.10;99.90
2465;DHT22;1244;54.326;10.074;2023-05-16T05:40:46;10.10;99.90
2465;DHT22;1244;54.326;10.074;2023-05-16T05:43:12;10.20;99.90
2465;DHT22;1244;54.326;10.074;2023-05-16T05:45:37;10.30;99.90
2465;DHT22;1244;54.326;10.074;2023-05-16T05:48:03;10.30;99.90
2465;DHT22;1244;54.326;10.074;2023-05-16T05:50:29;10.30;99.90
2465;DHT22;1244;54.326;10.074;2023-05-16T05:52:54;10.50;99.90
2465;DHT22;1244;54.326;10.074;2023-05-16T05:55:20;10.50;99.90
2465;DHT22;1244;54.326;10.074;2023-05-16T05:57:46;10.60;99.90
2465;DHT22;1244;54.326;10.074;2023-05-16T06:00:12;10.60;99.90
2465;DHT22;1244;54.326;10.074;2023-05-16T06:02:38;10.50;99.90
2465;DHT22;1244;54.326;10.074;2023-05-16T06:05:03;10.70;99.90
2465;DHT22;1244;54.326;10.074;2023-05-16T06:07:29;10.90;99.90
2465;DHT22;1244;54.326;10.074;2023-05-16T06:09:54;10.90;99.90
2465;DHT22;1244;54.326;10.074;2023-05-16T06:12:20;10.90;99.90
2465;DHT22;1244;54.326;10.074;2023-05-16T06:14:45;11.10;99.90
2465;DHT22;1244;54.326;10.074;2023-05-16T06:17:11;11.20;99.90
2465;DHT22;1244;54.326;10.074;2023-05-16T06:19:36;11.20;99.90
2465;DHT22;1244;54.326;10.074;2023-05-16T06:22:02;11.30;99.90
2465;DHT22;1244;54.326;10.074;2023-05-16T06:24:27;11.20;99.90
2465;DHT22;1244;54.326;10.074;2023-05-16T06:26:54;11.20;99.90
2465;DHT22;1244;54.326;10.074;2023-05-16T06:29:20;11.20;99.90
2465;DHT22;1244;54.326;10.074;2023-05-16T06:31:45;11.10;99.90
2465;DHT22;1244;54.326;10.074;2023-05-16T06:34:13;11.30;99.90
2465;DHT22;1244;54.326;10.074;2023-05-16T06:36:39;11.20;99.90
2465;DHT22;1244;54.326;10.074;2023-05-16T06:39:04;11.20;99.90
2465;DHT22;1244;54.326;10.074;2023-05-16T06:41:30;11.10;99.90
2465;DHT22;1244;54.326;10.074;2023-05-16T06:43:57;11.10;99.90
2465;DHT22;1244;54.326;10.074;2023-05-16T06:46:23;11.20;99.90
2465;DHT22;1244;54.326;10.074;2023-05-16T06:48:48;11.60;99.90
2465;DHT22;1244;54.326;10.074;2023-05-16T06:51:14;11.80;99.90
2465;DHT22;1244;54.326;10.074;2023-05-16T06:53:40;11.70;99.90
2465;DHT22;1244;54.326;10.074;2023-05-16T06:56:06;11.80;99.90
2465;DHT22;1244;54.326;10.074;2023-05-16T06:58:31;11.70;99.90
2465;DHT22;1244;54.326;10.074;2023-05-16T07:00:57;11.70;99.90
2465;DHT22;1244;54.326;10.074;2023-05-16T07:03:22;11.80;99.90
2465;DHT22;1244;54.326;10.074;2023-05-16T07:05:48;11.80;99.90
2465;DHT22;1244;54.326;10.074;2023-05-16T07:08:15;11.70;99.90
2465;DHT22;1244;54.326;10.074;2023-05-16T07:10:41;11.70;99.90
2465;DHT22;1244;54.326;10.074;2023-05-16T07:13:07;11.90;99.90
2465;DHT22;1244;54.326;10.074;2023-05-16T07:15:32;12.40;99.90
2465;DHT22;1244;54.326;10.074;2023-05-16T07:17:58;12.20;99.90
2465;DHT22;1244;54.326;10.074;2023-05-16T07:20:24;12.00;99.90
2465;DHT22;1244;54.326;10.074;2023-05-16T07:22:49;11.80;99.90
2465;DHT22;1244;54.326;10.074;2023-05-16T07:25:15;11.90;99.90
2465;DHT22;1244;54.326;10.074;2023-05-16T07:27:41;11.90;99.90
2465;DHT22;1244;54.326;10.074;2023-05-16T07:30:12;12.50;99.90
2465;DHT22;1244;54.326;10.074;2023-05-16T07:32:38;12.60;99.90
2465;DHT22;1244;54.326;10.074;2023-05-16T07:35:04;12.30;99.90
2465;DHT22;1244;54.326;10.074;2023-05-16T07:37:30;12.30;99.90
2465;DHT22;1244;54.326;10.074;2023-05-16T07:39:56;12.90;99.90
2465;DHT22;1244;54.326;10.074;2023-05-16T07:42:21;13.20;99.90
2465;DHT22;1244;54.326;10.074;2023-05-16T07:44:47;13.60;99.90
2465;DHT22;1244;54.326;10.074;2023-05-16T07:47:13;13.30;99.90
2465;DHT22;1244;54.326;10.074;2023-05-16T07:49:38;14.10;99.90
2465;DHT22;1244;54.326;10.074;2023-05-16T07:52:04;14.30;99.90
2465;DHT22;1244;54.326;10.074;2023-05-16T07:54:31;13.60;99.90
2465;DHT22;1244;54.326;10.074;2023-05-16T07:56:57;13.30;99.90
2465;DHT22;1244;54.326;10.074;2023-05-16T07:59:23;13.30;99.90
2465;DHT22;1244;54.326;10.074;2023-05-16T08:01:48;13.10;99.90
2465;DHT22;1244;54.326;10.074;2023-05-16T08:04:14;13.00;99.90
2465;DHT22;1244;54.326;10.074;2023-05-16T08:06:40;13.10;99.90
2465;DHT22;1244;54.326;10.074;2023-05-16T08:09:05;12.60;99.90
2465;DHT22;1244;54.326;10.074;2023-05-16T08:11:31;12.50;99.90
2465;DHT22;1244;54.326;10.074;2023-05-16T08:13:56;12.00;99.90
2465;DHT22;1244;54.326;10.074;2023-05-16T08:16:22;12.90;99.90
2465;DHT22;1244;54.326;10.074;2023-05-16T08:18:47;13.40;99.90
2465;DHT22;1244;54.326;10.074;2023-05-16T08:21:13;13.50;99.90
2465;DHT22;1244;54.326;10.074;2023-05-16T08:23:40;13.90;99.90
2465;DHT22;1244;54.326;10.074;2023-05-16T08:26:06;14.10;99.90
2465;DHT22;1244;54.326;10.074;2023-05-16T08:28:32;14.30;99.90
2465;DHT22;1244;54.326;10.074;2023-05-16T08:30:57;14.30;99.90
2465;DHT22;1244;54.326;10.074;2023-05-16T08:33:23;14.70;99.90
2465;DHT22;1244;54.326;10.074;2023-05-16T08:35:50;14.60;99.90
2465;DHT22;1244;54.326;10.074;2023-05-16T08:38:17;14.00;99.90
2465;DHT22;1244;54.326;10.074;2023-05-16T08:40:43;13.10;99.90
2465;DHT22;1244;54.326;10.074;2023-05-16T08:43:08;12.70;99.90
2465;DHT22;1244;54.326;10.074;2023-05-16T08:45:34;12.60;99.90
2465;DHT22;1244;54.326;10.074;2023-05-16T08:48:00;13.30;99.90
2465;DHT22;1244;54.326;10.074;2023-05-16T08:50:30;13.70;99.90
2465;DHT22;1244;54.326;10.074;2023-05-16T08:52:56;13.80;99.90
2465;DHT22;1244;54.326;10.074;2023-05-16T08:55:23;14.20;99.90
2465;DHT22;1244;54.326;10.074;2023-05-16T08:57:53;14.40;99.90
2465;DHT22;1244;54.326;10.074;2023-05-16T09:00:19;13.90;99.90
2465;DHT22;1244;54.326;10.074;2023-05-16T09:02:46;13.20;99.90
2465;DHT22;1244;54.326;10.074;2023-05-16T09:05:13;13.00;99.90
2465;DHT22;1244;54.326;10.074;2023-05-16T09:07:40;12.70;99.90
2465;DHT22;1244;54.326;10.074;2023-05-16T09:10:07;13.50;99.90
2465;DHT22;1244;54.326;10.074;2023-05-16T09:12:33;13.80;99.90
2465;DHT22;1244;54.326;10.074;2023-05-16T09:15:02;13.10;99.90
2465;DHT22;1244;54.326;10.074;2023-05-16T09:17:36;13.30;99.90
2465;DHT22;1244;54.326;10.074;2023-05-16T09:20:29;13.00;99.90
2465;DHT22;1244;54.326;10.074;2023-05-16T09:22:57;13.70;99.90
2465;DHT22;1244;54.326;10.074;2023-05-16T09:25:25;14.40;99.90
2465;DHT22;1244;54.326;10.074;2023-05-16T09:27:56;14.90;99.90
2465;DHT22;1244;54.326;10.074;2023-05-16T09:30:32;15.50;99.90
2465;DHT22;1244;54.326;10.074;2023-05-16T09:32:58;15.00;99.90
2465;DHT22;1244;54.326;10.074;2023-05-16T09:35:24;14.10;99.90
2465;DHT22;1244;54.326;10.074;2023-05-16T09:37:50;13.40;99.90
2465;DHT22;1244;54.326;10.074;2023-05-16T09:40:21;13.10;99.90
2465;DHT22;1244;54.326;10.074;2023-05-16T09:42:46;13.00;99.90
2465;DHT22;1244;54.326;10.074;2023-05-16T09:45:13;12.90;99.90
2465;DHT22;1244;54.326;10.074;2023-05-16T09:47:39;14.20;99.90
2465;DHT22;1244;54.326;10.074;2023-05-16T09:50:13;14.20;99.90
2465;DHT22;1244;54.326;10.074;2023-05-16T09:52:40;13.80;99.90
2465;DHT22;1244;54.326;10.074;2023-05-16T09:55:07;13.50;99.90
2465;DHT22;1244;54.326;10.074;2023-05-16T09:57:36;13.80;99.90
2465;DHT22;1244;54.326;10.074;2023-05-16T10:00:09;14.60;99.90
2465;DHT22;1244;54.326;10.074;2023-05-16T10:02:36;15.60;99.90
2465;DHT22;1244;54.326;10.074;2023-05-16T10:05:02;15.20;99.90
2465;DHT22;1244;54.326;10.074;2023-05-16T10:07:30;15.40;99.90
2465;DHT22;1244;54.326;10.074;2023-05-16T10:09:57;16.10;99.90
2465;DHT22;1244;54.326;10.074;2023-05-16T10:12:28;15.20;99.90
2465;DHT22;1244;54.326;10.074;2023-05-16T10:14:54;14.50;99.90
2465;DHT22;1244;54.326;10.074;2023-05-16T10:17:21;14.10;99.90
2465;DHT22;1244;54.326;10.074;2023-05-16T10:19:47;13.90;99.90
2465;DHT22;1244;54.326;10.074;2023-05-16T10:22:14;13.90;99.90
2465;DHT22;1244;54.326;10.074;2023-05-16T10:24:51;13.70;99.90
2465;DHT22;1244;54.326;10.074;2023-05-16T10:27:19;15.00;99.90
2465;DHT22;1244;54.326;10.074;2023-05-16T10:29:45;15.80;99.90
2465;DHT22;1244;54.326;10.074;2023-05-16T10:32:11;15.70;99.90
2465;DHT22;1244;54.326;10.074;2023-05-16T10:34:38;16.10;99.90
2465;DHT22;1244;54.326;10.074;2023-05-16T10:37:04;17.60;99.90
2465;DHT22;1244;54.326;10.074;2023-05-16T10:39:31;17.80;99.90
2465;DHT22;1244;54.326;10.074;2023-05-16T10:41:57;17.20;99.90
2465;DHT22;1244;54.326;10.074;2023-05-16T10:44:24;17.00;99.90
2465;DHT22;1244;54.326;10.074;2023-05-16T10:46:50;16.30;99.90
2465;DHT22;1244;54.326;10.074;2023-05-16T10:49:23;17.20;99.90
2465;DHT22;1244;54.326;10.074;2023-05-16T10:52:09;17.80;99.90
2465;DHT22;1244;54.326;10.074;2023-05-16T10:57:22;17.40;99.90
2465;DHT22;1244;54.326;10.074;2023-05-16T10:59:49;15.60;99.00
2465;DHT22;1244;54.326;10.074;2023-05-16T11:02:30;14.50;99.90
2465;DHT22;1244;54.326;10.074;2023-05-16T11:04:59;13.80;99.90
2465;DHT22;1244;54.326;10.074;2023-05-16T11:07:32;13.60;99.90
2465;DHT22;1244;54.326;10.074;2023-05-16T11:10:06;13.30;99.90
2465;DHT22;1244;54.326;10.074;2023-05-16T11:12:44;13.50;99.90
2465;DHT22;1244;54.326;10.074;2023-05-16T11:15:24;13.60;99.90
2465;DHT22;1244;54.326;10.074;2023-05-16T11:17:50;14.00;99.90
2465;DHT22;1244;54.326;10.074;2023-05-16T11:20:32;14.20;99.90
2465;DHT22;1244;54.326;10.074;2023-05-16T11:23:22;14.00;99.90
2465;DHT22;1244;54.326;10.074;2023-05-16T11:25:54;13.60;99.90
2465;DHT22;1244;54.326;10.074;2023-05-16T11:28:20;13.10;99.90
2465;DHT22;1244;54.326;10.074;2023-05-16T11:30:52;12.70;99.90
2465;DHT22;1244;54.326;10.074;2023-05-16T11:33:20;12.30;99.90
2465;DHT22;1244;54.326;10.074;2023-05-16T11:36:05;12.20;99.90
2465;DHT22;1244;54.326;10.074;2023-05-16T11:38:32;12.20;99.90
2465;DHT22;1244;54.326;10.074;2023-05-16T11:41:04;12.20;99.90
2465;DHT22;1244;54.326;10.074;2023-05-16T11:43:39;12.30;99.90
2465;DHT22;1244;54.326;10.074;2023-05-16T11:46:05;12.80;99.90
2465;DHT22;1244;54.326;10.074;2023-05-16T11:48:32;12.90;99.90
2465;DHT22;1244;54.326;10.074;2023-05-16T11:50:57;12.60;99.90
2465;DHT22;1244;54.326;10.074;2023-05-16T11:53:23;12.40;99.90
2465;DHT22;1244;54.326;10.074;2023-05-16T11:55:48;12.00;99.90
2465;DHT22;1244;54.326;10.074;2023-05-16T11:58:18;12.60;99.90
2465;DHT22;1244;54.326;10.074;2023-05-16T12:00:48;12.70;99.90
2465;DHT22;1244;54.326;10.074;2023-05-16T12:03:16;13.30;99.90
2465;DHT22;1244;54.326;10.074;2023-05-16T12:05:52;14.60;99.90
2465;DHT22;1244;54.326;10.074;2023-05-16T12:08:19;15.70;99.90
2465;DHT22;1244;54.326;10.074;2023-05-16T12:10:50;17.10;99.90
2465;DHT22;1244;54.326;10.074;2023-05-16T12:13:18;17.40;99.90
2465;DHT22;1244;54.326;10.074;2023-05-16T12:15:45;16.40;99.90
2465;DHT22;1244;54.326;10.074;2023-05-16T12:18:11;15.80;99.90
2465;DHT22;1244;54.326;10.074;2023-05-16T12:20:37;15.60;99.90
2465;DHT22;1244;54.326;10.074;2023-05-16T12:23:02;15.60;99.90
2465;DHT22;1244;54.326;10.074;2023-05-16T12:25:32;15.00;99.90
2465;DHT22;1244;54.326;10.074;2023-05-16T12:28:02;14.30;99.90
2465;DHT22;1244;54.326;10.074;2023-05-16T12:30:29;14.10;99.90
2465;DHT22;1244;54.326;10.074;2023-05-16T12:33:03;13.60;99.90
2465;DHT22;1244;54.326;10.074;2023-05-16T12:35:33;13.10;99.90
2465;DHT22;1244;54.326;10.074;2023-05-16T12:37:59;13.00;99.90
2465;DHT22;1244;54.326;10.074;2023-05-16T12:40:28;13.10;99.90
2465;DHT22;1244;54.326;10.074;2023-05-16T12:42:54;13.10;99.90
2465;DHT22;1244;54.326;10.074;2023-05-16T12:45:21;12.80;99.90
2465;DHT22;1244;54.326;10.074;2023-05-16T12:47:47;13.10;99.90
2465;DHT22;1244;54.326;10.074;2023-05-16T12:50:14;13.10;99.90
2465;DHT22;1244;54.326;10.074;2023-05-16T12:52:52;13.70;99.90
2465;DHT22;1244;54.326;10.074;2023-05-16T12:55:20;13.50;99.90
2465;DHT22;1244;54.326;10.074;2023-05-16T12:57:47;14.20;99.90
2465;DHT22;1244;54.326;10.074;2023-05-16T13:00:13;14.90;99.90
2465;DHT22;1244;54.326;10.074;2023-05-16T13:02:40;15.30;99.90
2465;DHT22;1244;54.326;10.074;2023-05-16T13:05:05;15.50;99.90
2465;DHT22;1244;54.326;10.074;2023-05-16T13:07:35;15.60;99.90
2465;DHT22;1244;54.326;10.074;2023-05-16T13:10:01;15.90;99.90
2465;DHT22;1244;54.326;10.074;2023-05-16T13:12:26;15.30;99.90
2465;DHT22;1244;54.326;10.074;2023-05-16T13:14:52;15.20;99.90
2465;DHT22;1244;54.326;10.074;2023-05-16T13:17:18;14.90;99.90
2465;DHT22;1244;54.326;10.074;2023-05-16T13:19:44;14.70;99.90
2465;DHT22;1244;54.326;10.074;2023-05-16T13:22:09;14.90;99.90
2465;DHT22;1244;54.326;10.074;2023-05-16T13:24:35;15.10;99.90
2465;DHT22;1244;54.326;10.074;2023-05-16T13:27:00;14.80;99.90
2465;DHT22;1244;54.326;10.074;2023-05-16T13:29:26;15.40;99.90
2465;DHT22;1244;54.326;10.074;2023-05-16T13:31:51;14.80;99.90
2465;DHT22;1244;54.326;10.074;2023-05-16T13:34:17;14.60;99.90
2465;DHT22;1244;54.326;10.074;2023-05-16T13:36:42;14.40;99.90
2465;DHT22;1244;54.326;10.074;2023-05-16T13:39:10;13.80;99.90
2465;DHT22;1244;54.326;10.074;2023-05-16T13:41:37;13.40;99.90
2465;DHT22;1244;54.326;10.074;2023-05-16T13:44:04;13.10;99.90
2465;DHT22;1244;54.326;10.074;2023-05-16T13:46:30;13.50;99.90
2465;DHT22;1244;54.326;10.074;2023-05-16T13:48:55;13.00;99.90
2465;DHT22;1244;54.326;10.074;2023-05-16T13:51:21;13.10;99.90
2465;DHT22;1244;54.326;10.074;2023-05-16T13:53:46;13.20;99.90
2465;DHT22;1244;54.326;10.074;2023-05-16T13:56:12;13.10;99.90
2465;DHT22;1244;54.326;10.074;2023-05-16T13:58:37;13.10;99.90
2465;DHT22;1244;54.326;10.074;2023-05-16T14:01:03;13.00;99.90
2465;DHT22;1244;54.326;10.074;2023-05-16T14:03:28;13.00;99.90
2465;DHT22;1244;54.326;10.074;2023-05-16T14:05:54;12.60;99.90
2465;DHT22;1244;54.326;10.074;2023-05-16T14:08:19;12.80;99.90
2465;DHT22;1244;54.326;10.074;2023-05-16T14:10:45;12.90;99.90
2465;DHT22;1244;54.326;10.074;2023-05-16T14:13:10;13.00;99.90
2465;DHT22;1244;54.326;10.074;2023-05-16T14:15:36;13.10;99.90
2465;DHT22;1244;54.326;10.074;2023-05-16T14:18:02;13.10;99.90
2465;DHT22;1244;54.326;10.074;2023-05-16T14:20:29;13.50;99.90
2465;DHT22;1244;54.326;10.074;2023-05-16T14:22:54;13.70;99.90
2465;DHT22;1244;54.326;10.074;2023-05-16T14:25:21;13.20;99.90
2465;DHT22;1244;54.326;10.074;2023-05-16T14:27:46;13.40;99.90
2465;DHT22;1244;54.326;10.074;2023-05-16T14:30:15;13.50;99.90
2465;DHT22;1244;54.326;10.074;2023-05-16T14:32:41;13.90;99.90
2465;DHT22;1244;54.326;10.074;2023-05-16T14:35:06;14.10;99.90
2465;DHT22;1244;54.326;10.074;2023-05-16T14:37:33;13.40;99.90
2465;DHT22;1244;54.326;10.074;2023-05-16T14:39:59;13.60;99.90
2465;DHT22;1244;54.326;10.074;2023-05-16T14:42:25;13.80;99.90
2465;DHT22;1244;54.326;10.074;2023-05-16T14:44:51;13.70;99.90
2465;DHT22;1244;54.326;10.074;2023-05-16T14:47:16;13.40;99.90
2465;DHT22;1244;54.326;10.074;2023-05-16T14:49:42;13.40;99.90
2465;DHT22;1244;54.326;10.074;2023-05-16T14:52:07;12.90;99.90
2465;DHT22;1244;54.326;10.074;2023-05-16T14:54:33;12.70;99.90
2465;DHT22;1244;54.326;10.074;2023-05-16T14:56:59;12.30;99.90
2465;DHT22;1244;54.326;10.074;2023-05-16T14:59:25;12.30;99.90
2465;DHT22;1244;54.326;10.074;2023-05-16T15:01:51;12.10;99.90
2465;DHT22;1244;54.326;10.074;2023-05-16T15:04:16;11.90;99.90
2465;DHT22;1244;54.326;10.074;2023-05-16T15:06:42;11.60;99.90
2465;DHT22;1244;54.326;10.074;2023-05-16T15:09:07;11.50;99.90
2465;DHT22;1244;54.326;10.074;2023-05-16T15:11:33;11.10;99.90
2465;DHT22;1244;54.326;10.074;2023-05-16T15:13:58;10.60;99.90
2465;DHT22;1244;54.326;10.074;2023-05-16T15:16:24;10.30;99.90
2465;DHT22;1244;54.326;10.074;2023-05-16T15:18:50;10.20;99.90
2465;DHT22;1244;54.326;10.074;2023-05-16T15:21:15;10.30;99.90
2465;DHT22;1244;54.326;10.074;2023-05-16T15:23:41;10.40;99.90
2465;DHT22;1244;54.326;10.074;2023-05-16T15:26:06;10.40;99.90
2465;DHT22;1244;54.326;10.074;2023-05-16T15:28:32;10.30;99.90
2465;DHT22;1244;54.326;10.074;2023-05-16T15:30:57;10.30;99.90
2465;DHT22;1244;54.326;10.074;2023-05-16T15:33:23;10.60;99.90
2465;DHT22;1244;54.326;10.074;2023-05-16T15:35:48;10.80;99.90
2465;DHT22;1244;54.326;10.074;2023-05-16T15:38:14;10.50;99.90
2465;DHT22;1244;54.326;10.074;2023-05-16T15:40:40;10.40;99.90
2465;DHT22;1244;54.326;10.074;2023-05-16T15:43:05;10.50;99.90
2465;DHT22;1244;54.326;10.074;2023-05-16T15:45:31;10.50;99.90
2465;DHT22;1244;54.326;10.074;2023-05-16T15:47:57;10.50;99.90
2465;DHT22;1244;54.326;10.074;2023-05-16T15:50:22;10.40;99.90
2465;DHT22;1244;54.326;10.074;2023-05-16T15:52:48;10.20;99.90
2465;DHT22;1244;54.326;10.074;2023-05-16T15:55:13;10.10;99.90
2465;DHT22;1244;54.326;10.074;2023-05-16T15:57:39;10.10;99.90
2465;DHT22;1244;54.326;10.074;2023-05-16T16:00:06;10.20;99.90
2465;DHT22;1244;54.326;10.074;2023-05-16T16:02:32;10.20;99.90